createdAt,value
2023-03-27T00:02:23.583Z,100884.60
2023-03-27T00:04:50.577Z,100886.60
2023-03-27T00:07:19.372Z,100890.60
2023-03-27T00:09:46.073Z,100891.80
2023-03-27T00:12:13.815Z,100895.80
2023-03-27T00:14:45.200Z,100894.40
2023-03-27T00:17:11.648Z,100890.40
2023-03-27T00:19:38.437Z,100890.20
2023-03-27T00:22:04.889Z,100889.80
2023-03-27T00:24:32.229Z,100891.20
2023-03-27T00:26:59.388Z,100899.80
2023-03-27T00:29:27.100Z,100900.20
2023-03-27T00:31:53.889Z,100900.20
2023-03-27T00:34:20.903Z,100901.60
2023-03-27T00:36:50.523Z,100905.80
2023-03-27T00:39:18.546Z,100909.80
2023-03-27T00:41:46.804Z,100913.40
2023-03-27T00:44:33.770Z,100908.80
2023-03-27T00:47:03.288Z,100908.60
2023-03-27T00:49:36.900Z,100911.00
2023-03-27T00:52:06.770Z,100906.80
2023-03-27T00:54:42.374Z,100907.00
2023-03-27T00:57:15.906Z,100904.40
2023-03-27T00:59:46.172Z,100911.00
2023-03-27T01:02:17.592Z,100911.40
2023-03-27T01:04:46.161Z,100912.00
2023-03-27T01:07:15.682Z,100910.40
2023-03-27T01:09:42.732Z,100913.80
2023-03-27T01:12:19.004Z,100905.20
2023-03-27T01:15:20.730Z,100902.80
2023-03-27T01:18:32.538Z,100905.00
2023-03-27T01:21:17.063Z,100906.40
2023-03-27T01:24:14.368Z,100902.20
2023-03-27T01:27:05.949Z,100901.80
2023-03-27T01:30:04.126Z,100905.80
2023-03-27T01:32:59.267Z,100899.60
2023-03-27T01:35:45.649Z,100903.00
2023-03-27T01:38:57.495Z,100906.60
2023-03-27T01:42:08.036Z,100902.20
2023-03-27T01:44:51.478Z,100906.60
2023-03-27T01:47:41.106Z,100905.60
2023-03-27T01:50:16.393Z,100905.60
2023-03-27T01:52:55.055Z,100900.20
2023-03-27T01:55:29.639Z,100901.60
2023-03-27T01:58:47.402Z,100896.80
2023-03-27T02:01:26.649Z,100895.60
2023-03-27T02:04:02.114Z,100893.40
2023-03-27T02:06:41.277Z,100900.80
2023-03-27T02:09:24.085Z,100894.40
2023-03-27T02:12:08.409Z,100888.60
2023-03-27T02:15:22.585Z,100882.80
2023-03-27T02:18:05.786Z,100878.60
2023-03-27T02:20:35.140Z,100879.00
2023-03-27T02:23:02.158Z,100878.20
2023-03-27T02:25:31.051Z,100878.60
2023-03-27T02:28:22.334Z,100872.80
2023-03-27T02:31:32.838Z,100872.80
2023-03-27T02:34:14.346Z,100865.40
2023-03-27T02:37:18.563Z,100864.80
2023-03-27T02:40:05.995Z,100855.80
2023-03-27T02:43:01.155Z,100862.40
2023-03-27T02:46:04.826Z,100864.00
2023-03-27T02:48:46.076Z,100863.00
2023-03-27T02:51:29.360Z,100863.60
2023-03-27T02:54:08.702Z,100869.80
2023-03-27T02:56:47.103Z,100870.20
2023-03-27T02:59:26.569Z,100871.60
2023-03-27T03:01:54.520Z,100874.60
2023-03-27T03:04:41.386Z,100871.40
2023-03-27T03:07:10.927Z,100879.60
2023-03-27T03:09:40.593Z,100887.00
2023-03-27T03:12:08.628Z,100892.20
2023-03-27T03:14:40.474Z,100893.40
2023-03-27T03:17:06.871Z,100891.20
2023-03-27T03:19:33.255Z,100894.60
2023-03-27T03:22:01.037Z,100895.60
2023-03-27T03:24:29.070Z,100899.80
2023-03-27T03:26:56.837Z,100910.20
2023-03-27T03:29:37.591Z,100910.00
2023-03-27T03:32:06.659Z,100913.80
2023-03-27T03:34:36.079Z,100915.20
2023-03-27T03:37:02.701Z,100914.40
2023-03-27T03:39:29.137Z,100912.80
2023-03-27T03:41:55.951Z,100912.40
2023-03-27T03:44:23.517Z,100910.80
2023-03-27T03:46:50.121Z,100913.60
2023-03-27T03:49:16.856Z,100918.20
2023-03-27T03:51:43.257Z,100914.80
2023-03-27T03:54:09.720Z,100912.60
2023-03-27T03:56:40.745Z,100914.00
2023-03-27T03:59:11.142Z,100910.40
2023-03-27T04:01:37.717Z,100909.40
2023-03-27T04:04:05.163Z,100917.60
2023-03-27T04:06:31.964Z,100924.00
2023-03-27T04:08:59.327Z,100921.40
2023-03-27T04:11:25.679Z,100925.60
2023-03-27T04:13:53.157Z,100929.60
2023-03-27T04:16:20.628Z,100929.20
2023-03-27T04:18:49.840Z,100933.00
2023-03-27T04:21:17.061Z,100939.20
2023-03-27T04:23:48.885Z,100947.40
2023-03-27T04:26:17.803Z,100944.60
2023-03-27T04:28:46.451Z,100943.80
2023-03-27T04:31:13.808Z,100947.20
2023-03-27T04:33:45.762Z,100952.80
2023-03-27T04:36:17.661Z,100953.20
2023-03-27T04:38:44.947Z,100955.00
2023-03-27T04:41:11.653Z,100954.20
2023-03-27T04:43:41.105Z,100957.80
2023-03-27T04:46:08.728Z,100957.60
2023-03-27T04:48:39.326Z,100952.00
2023-03-27T04:51:08.782Z,100959.60
2023-03-27T04:53:37.033Z,100958.00
2023-03-27T04:56:06.225Z,100955.20
2023-03-27T04:58:34.565Z,100956.80
2023-03-27T05:01:05.005Z,100959.20
2023-03-27T05:03:31.937Z,100966.40
2023-03-27T05:05:58.782Z,100970.80
2023-03-27T05:08:26.738Z,100971.80
2023-03-27T05:10:53.181Z,100972.20
2023-03-27T05:13:19.737Z,100975.40
2023-03-27T05:15:46.475Z,100978.80
2023-03-27T05:18:13.900Z,100985.40
2023-03-27T05:20:40.309Z,100984.20
2023-03-27T05:23:10.291Z,100986.40
2023-03-27T05:25:39.597Z,100988.60
2023-03-27T05:28:06.855Z,101000.00
2023-03-27T05:30:34.863Z,100995.20
2023-03-27T05:33:01.614Z,100997.00
2023-03-27T05:35:28.091Z,100996.00
2023-03-27T05:37:59.695Z,100994.60
2023-03-27T05:40:30.349Z,100999.00
2023-03-27T05:42:57.759Z,100995.60
2023-03-27T05:45:26.763Z,101002.00
2023-03-27T05:48:00.762Z,100996.80
2023-03-27T05:50:35.607Z,100993.80
2023-03-27T05:53:10.018Z,100997.00
2023-03-27T05:55:39.929Z,101003.80
2023-03-27T05:58:09.235Z,101003.40
2023-03-27T06:00:37.777Z,101007.80
2023-03-27T06:03:05.120Z,101009.00
2023-03-27T06:05:31.952Z,101016.20
2023-03-27T06:07:58.891Z,101015.80
2023-03-27T06:10:30.525Z,101017.60
2023-03-27T06:13:01.143Z,101023.40
2023-03-27T06:15:28.538Z,101023.80
2023-03-27T06:17:55.417Z,101025.40
2023-03-27T06:20:26.862Z,101026.20
2023-03-27T06:22:59.232Z,101028.40
2023-03-27T06:25:31.535Z,101032.80
2023-03-27T06:27:58.890Z,101036.00
2023-03-27T06:30:27.574Z,101039.60
2023-03-27T06:32:57.825Z,101047.20
2023-03-27T06:35:27.895Z,101054.40
2023-03-27T06:37:58.511Z,101057.40
2023-03-27T06:40:35.607Z,101061.20
2023-03-27T06:43:07.680Z,101061.40
2023-03-27T06:45:50.367Z,101063.40
2023-03-27T06:48:22.059Z,101066.40
2023-03-27T06:50:52.280Z,101067.80
2023-03-27T06:55:52.855Z,101077.60
2023-03-27T06:58:19.656Z,101075.60
2023-03-27T07:00:48.581Z,101076.20
2023-03-27T07:03:17.328Z,101073.00
2023-03-27T07:05:44.525Z,101081.40
2023-03-27T07:10:59.706Z,101087.20
2023-03-27T07:13:34.528Z,101087.40
2023-03-27T07:16:01.857Z,101084.00
2023-03-27T07:18:28.715Z,101088.60
2023-03-27T07:20:55.317Z,101088.80
2023-03-27T07:23:22.382Z,101096.60
2023-03-27T07:25:54.540Z,101099.20
2023-03-27T07:28:23.023Z,101105.60
2023-03-27T07:30:49.490Z,101110.20
2023-03-27T07:33:15.950Z,101117.20
2023-03-27T07:35:47.623Z,101114.80
2023-03-27T07:38:16.219Z,101113.20
2023-03-27T07:40:45.596Z,101115.40
2023-03-27T07:43:12.690Z,101119.80
2023-03-27T07:45:39.723Z,101120.60
2023-03-27T07:48:10.175Z,101129.80
2023-03-27T07:50:37.337Z,101130.20
2023-03-27T07:53:08.603Z,101128.40
2023-03-27T07:55:37.862Z,101122.80
2023-03-27T07:58:06.091Z,101121.00
2023-03-27T08:00:38.179Z,101122.40
2023-03-27T08:03:13.356Z,101124.20
2023-03-27T08:05:41.011Z,101126.40
2023-03-27T08:08:09.366Z,101133.20
2023-03-27T08:10:39.248Z,101131.40
2023-03-27T08:13:06.925Z,101127.20
2023-03-27T08:15:33.347Z,101125.40
2023-03-27T08:18:00.831Z,101135.80
2023-03-27T08:20:29.622Z,101138.00
2023-03-27T08:22:56.108Z,101140.40
2023-03-27T08:25:22.904Z,101142.00
2023-03-27T08:27:51.599Z,101142.40
2023-03-27T08:30:23.913Z,101151.60
2023-03-27T08:32:51.104Z,101153.80
2023-03-27T08:35:18.134Z,101155.20
2023-03-27T08:37:45.516Z,101151.00
2023-03-27T08:40:27.548Z,101154.00
2023-03-27T08:43:04.139Z,101161.60
2023-03-27T08:45:45.748Z,101161.00
2023-03-27T08:48:24.934Z,101172.60
2023-03-27T08:50:57.815Z,101164.60
2023-03-27T08:53:48.123Z,101163.60
2023-03-27T08:56:20.191Z,101167.80
2023-03-27T08:58:49.816Z,101172.60
2023-03-27T09:01:53.932Z,101171.20
2023-03-27T09:04:47.764Z,101176.40
2023-03-27T09:07:47.945Z,101176.80
2023-03-27T09:10:55.726Z,101179.20
2023-03-27T09:13:37.443Z,101180.60
2023-03-27T09:16:20.901Z,101182.40
2023-03-27T09:19:03.260Z,101187.00
2023-03-27T09:21:48.507Z,101186.40
2023-03-27T09:24:40.421Z,101189.40
2023-03-27T09:27:26.904Z,101190.40
2023-03-27T09:30:20.338Z,101188.00
2023-03-27T09:32:50.874Z,101193.00
2023-03-27T09:35:20.797Z,101191.00
2023-03-27T09:37:56.025Z,101198.60
2023-03-27T09:40:40.828Z,101207.60
2023-03-27T09:43:16.818Z,101215.00
2023-03-27T09:45:45.147Z,101217.00
2023-03-27T09:48:27.742Z,101217.00
2023-03-27T09:50:54.480Z,101226.40
2023-03-27T09:53:25.326Z,101223.40
2023-03-27T09:56:02.442Z,101228.20
2023-03-27T09:58:39.148Z,101227.00
2023-03-27T10:01:28.443Z,101233.80
2023-03-27T10:03:59.436Z,101242.00
2023-03-27T10:06:30.629Z,101242.00
2023-03-27T10:09:06.836Z,101242.60
2023-03-27T10:11:35.624Z,101237.00
2023-03-27T10:14:16.104Z,101239.80
2023-03-27T10:16:45.709Z,101244.60
2023-03-27T10:19:28.850Z,101248.00
2023-03-27T10:22:01.821Z,101256.20
2023-03-27T10:24:44.189Z,101254.80
2023-03-27T10:27:26.184Z,101252.20
2023-03-27T10:29:56.904Z,101256.80
2023-03-27T10:32:46.991Z,101253.20
2023-03-27T10:35:30.262Z,101260.80
2023-03-27T10:38:04.038Z,101264.20
2023-03-27T10:40:36.293Z,101260.80
2023-03-27T10:43:32.901Z,101261.60
2023-03-27T10:46:05.503Z,101257.20
2023-03-27T10:49:12.855Z,101260.60
2023-03-27T10:52:10.786Z,101272.60
2023-03-27T10:55:00.735Z,101278.60
2023-03-27T10:57:36.024Z,101290.00
2023-03-27T11:00:34.687Z,101294.20
2023-03-27T11:03:25.964Z,101294.20
2023-03-27T11:05:56.919Z,101302.60
2023-03-27T11:08:38.378Z,101311.00
2023-03-27T11:11:27.147Z,101313.60
2023-03-27T11:14:02.718Z,101313.00
2023-03-27T11:16:48.150Z,101314.60
2023-03-27T11:19:33.066Z,101319.60
2023-03-27T11:22:31.791Z,101316.60
2023-03-27T11:25:42.946Z,101315.20
2023-03-27T11:28:32.440Z,101323.40
2023-03-27T11:31:25.218Z,101320.60
2023-03-27T11:34:05.374Z,101332.60
2023-03-27T11:36:56.733Z,101332.00
2023-03-27T11:39:47.900Z,101335.60
2023-03-27T11:42:22.248Z,101343.20
2023-03-27T11:44:52.819Z,101348.40
2023-03-27T11:47:51.683Z,101360.20
2023-03-27T11:50:42.767Z,101372.80
2023-03-27T11:53:37.591Z,101376.80
2023-03-27T11:56:31.718Z,101372.60
2023-03-27T11:59:27.702Z,101372.20
2023-03-27T12:02:45.098Z,101370.20
2023-03-27T12:05:45.141Z,101365.60
2023-03-27T12:08:46.305Z,101365.60
2023-03-27T12:11:15.856Z,101365.20
2023-03-27T12:14:13.954Z,101362.20
2023-03-27T12:16:53.973Z,101373.60
2023-03-27T12:20:08.911Z,101375.60
2023-03-27T12:23:38.038Z,101383.20
2023-03-27T12:26:28.120Z,101380.20
2023-03-27T12:29:03.146Z,101384.60
2023-03-27T12:32:15.128Z,101387.80
2023-03-27T12:35:05.678Z,101386.20
2023-03-27T12:37:47.519Z,101389.80
2023-03-27T12:40:40.490Z,101389.80
2023-03-27T12:43:29.268Z,101394.20
2023-03-27T12:46:40.494Z,101397.00
2023-03-27T12:49:11.511Z,101404.80
2023-03-27T12:52:06.705Z,101398.60
2023-03-27T12:54:37.943Z,101399.00
2023-03-27T12:57:07.496Z,101405.80
2023-03-27T12:59:51.306Z,101405.40
2023-03-27T13:02:35.745Z,101408.80
2023-03-27T13:05:39.266Z,101410.20
2023-03-27T13:08:25.642Z,101406.80
2023-03-27T13:11:36.683Z,101407.00
2023-03-27T13:14:53.941Z,101404.40
2023-03-27T13:17:47.304Z,101409.40
2023-03-27T13:21:02.822Z,101411.60
2023-03-27T13:23:54.444Z,101411.00
2023-03-27T13:27:23.136Z,101414.40
2023-03-27T13:29:52.222Z,101412.60
2023-03-27T13:32:41.240Z,101424.20
2023-03-27T13:35:18.996Z,101428.80
2023-03-27T13:37:48.194Z,101429.20
2023-03-27T13:40:28.781Z,101437.60
2023-03-27T13:43:10.925Z,101433.00
2023-03-27T13:45:49.317Z,101450.80
2023-03-27T13:48:59.854Z,101451.80
2023-03-27T13:52:05.450Z,101469.20
2023-03-27T13:55:10.312Z,101464.20
2023-03-27T13:58:32.079Z,101470.40
2023-03-27T14:01:16.684Z,101477.60
2023-03-27T14:04:37.830Z,101473.00
2023-03-27T14:07:19.094Z,101484.20
2023-03-27T14:10:13.568Z,101481.40
2023-03-27T14:13:01.125Z,101482.20
2023-03-27T14:16:06.395Z,101485.40
2023-03-27T14:19:12.182Z,101498.00
2023-03-27T14:21:59.490Z,101492.40
2023-03-27T14:24:59.063Z,101494.40
2023-03-27T14:27:27.275Z,101492.80
2023-03-27T14:30:25.871Z,101502.60
2023-03-27T14:32:55.767Z,101496.60
2023-03-27T14:35:43.610Z,101510.00
2023-03-27T14:38:40.995Z,101502.80
2023-03-27T14:41:20.506Z,101499.60
2023-03-27T14:43:51.881Z,101497.40
2023-03-27T14:46:23.818Z,101500.40
2023-03-27T14:48:57.789Z,101494.80
2023-03-27T14:51:36.414Z,101500.80
2023-03-27T14:54:13.548Z,101499.00
2023-03-27T14:56:46.963Z,101496.80
2023-03-27T14:59:23.854Z,101500.20
2023-03-27T15:01:59.832Z,101509.80
2023-03-27T15:04:31.893Z,101509.60
2023-03-27T15:07:29.289Z,101507.20
2023-03-27T15:10:27.273Z,101501.00
2023-03-27T15:12:55.316Z,101509.60
2023-03-27T15:15:26.615Z,101508.00
2023-03-27T15:17:59.833Z,101516.80
2023-03-27T15:20:31.163Z,101507.80
2023-03-27T15:23:15.495Z,101513.40
2023-03-27T15:26:11.491Z,101518.40
2023-03-27T15:28:50.478Z,101513.80
2023-03-27T15:31:19.496Z,101522.60
2023-03-27T15:34:03.161Z,101529.40
2023-03-27T15:36:34.593Z,101527.40
2023-03-27T15:39:06.147Z,101532.80
2023-03-27T15:41:41.101Z,101531.20
2023-03-27T15:44:15.257Z,101536.00
2023-03-27T15:46:56.809Z,101544.40
2023-03-27T15:49:41.297Z,101539.00
2023-03-27T15:52:31.599Z,101548.60
2023-03-27T15:55:00.154Z,101553.00
2023-03-27T15:57:30.830Z,101561.20
2023-03-27T16:00:13.948Z,101566.40
2023-03-27T16:02:41.868Z,101570.60
2023-03-27T16:05:18.095Z,101571.80
2023-03-27T16:07:49.408Z,101576.40
2023-03-27T16:10:32.583Z,101582.20
2023-03-27T16:13:03.306Z,101577.60
2023-03-27T16:15:59.321Z,101582.00
2023-03-27T16:18:34.674Z,101578.40
2023-03-27T16:21:12.606Z,101580.40
2023-03-27T16:23:40.048Z,101591.00
2023-03-27T16:26:15.584Z,101595.40
2023-03-27T16:28:42.933Z,101598.60
2023-03-27T16:31:19.794Z,101595.80
2023-03-27T16:33:46.699Z,101605.00
2023-03-27T16:36:19.200Z,101607.80
2023-03-27T16:38:46.735Z,101620.40
2023-03-27T16:41:16.745Z,101635.00
2023-03-27T16:43:44.814Z,101643.20
2023-03-27T16:46:25.557Z,101643.00
2023-03-27T16:48:53.974Z,101656.60
2023-03-27T16:51:27.527Z,101659.20
2023-03-27T16:53:58.276Z,101665.60
2023-03-27T16:56:25.061Z,101666.60
2023-03-27T16:58:52.930Z,101675.60
2023-03-27T17:01:24.429Z,101687.60
2023-03-27T17:03:50.854Z,101693.20
2023-03-27T17:06:21.297Z,101698.60
2023-03-27T17:08:54.506Z,101707.60
2023-03-27T17:11:23.080Z,101710.60
2023-03-27T17:13:50.294Z,101717.40
2023-03-27T17:16:18.931Z,101721.20
2023-03-27T17:18:45.487Z,101730.80
2023-03-27T17:21:11.999Z,101733.00
2023-03-27T17:23:41.652Z,101739.40
2023-03-27T17:26:14.086Z,101738.80
2023-03-27T17:28:43.141Z,101750.00
2023-03-27T17:31:09.879Z,101757.00
2023-03-27T17:33:36.442Z,101757.00
2023-03-27T17:36:14.653Z,101766.20
2023-03-27T17:38:42.865Z,101770.80
2023-03-27T17:41:16.578Z,101778.40
2023-03-27T17:43:48.020Z,101787.40
2023-03-27T17:46:15.983Z,101794.20
2023-03-27T17:48:43.584Z,101802.40
2023-03-27T17:51:10.388Z,101808.80
2023-03-27T17:53:40.043Z,101812.00
2023-03-27T17:56:11.186Z,101816.60
2023-03-27T17:58:37.959Z,101822.40
2023-03-27T18:01:16.154Z,101828.80
2023-03-27T18:03:43.804Z,101831.00
2023-03-27T18:06:10.938Z,101838.00
2023-03-27T18:08:37.738Z,101844.80
2023-03-27T18:11:10.995Z,101845.40
2023-03-27T18:13:44.677Z,101849.60
2023-03-27T18:16:12.284Z,101849.60
2023-03-27T18:18:40.967Z,101853.40
2023-03-27T18:21:10.320Z,101866.20
2023-03-27T18:23:45.943Z,101866.40
2023-03-27T18:26:14.923Z,101877.00
2023-03-27T18:28:42.926Z,101874.40
2023-03-27T18:31:11.926Z,101874.40
2023-03-27T18:33:38.474Z,101874.80
2023-03-27T18:36:11.455Z,101878.40
2023-03-27T18:38:40.475Z,101881.20
2023-03-27T18:41:08.912Z,101883.60
2023-03-27T18:43:35.953Z,101884.20
2023-03-27T18:46:07.678Z,101891.60
2023-03-27T18:48:37.147Z,101884.60
2023-03-27T18:51:05.609Z,101886.60
2023-03-27T18:53:34.965Z,101894.80
2023-03-27T18:56:03.746Z,101894.60
2023-03-27T18:58:31.632Z,101907.00
2023-03-27T19:01:00.245Z,101905.00
2023-03-27T19:03:34.172Z,101904.80
2023-03-27T19:06:18.690Z,101904.00
2023-03-27T19:08:46.848Z,101908.60
2023-03-27T19:11:13.740Z,101905.60
2023-03-27T19:13:41.753Z,101913.40
2023-03-27T19:16:15.044Z,101911.00
2023-03-27T19:18:43.510Z,101916.00
2023-03-27T19:21:13.222Z,101923.00
2023-03-27T19:23:40.218Z,101930.20
2023-03-27T19:26:11.794Z,101933.60
2023-03-27T19:28:39.927Z,101934.40
2023-03-27T19:31:11.113Z,101936.40
2023-03-27T19:33:40.059Z,101935.20
2023-03-27T19:36:09.484Z,101931.40
2023-03-27T19:38:37.967Z,101931.40
2023-03-27T19:41:08.902Z,101932.80
2023-03-27T19:43:38.367Z,101932.40
2023-03-27T19:46:15.585Z,101931.40
2023-03-27T19:48:51.024Z,101933.40
2023-03-27T19:51:22.077Z,101931.60
2023-03-27T19:53:48.954Z,101937.80
2023-03-27T19:56:16.352Z,101938.60
2023-03-27T19:58:42.869Z,101938.60
2023-03-27T20:01:10.749Z,101943.80
2023-03-27T20:03:45.111Z,101948.20
2023-03-27T20:06:18.602Z,101946.60
2023-03-27T20:08:45.736Z,101948.00
2023-03-27T20:11:14.709Z,101951.80
2023-03-27T20:13:52.916Z,101952.40
2023-03-27T20:16:26.949Z,101959.40
2023-03-27T20:19:06.562Z,101961.00
2023-03-27T20:21:45.516Z,101958.80
2023-03-27T20:24:16.894Z,101957.00
2023-03-27T20:26:49.311Z,101960.60
2023-03-27T20:29:23.663Z,101956.60
2023-03-27T20:31:50.536Z,101954.40
2023-03-27T20:34:18.809Z,101957.00
2023-03-27T20:36:54.295Z,101957.00
2023-03-27T20:39:20.705Z,101952.20
2023-03-27T20:41:50.970Z,101957.40
2023-03-27T20:44:19.355Z,101960.20
2023-03-27T20:46:52.036Z,101967.80
2023-03-27T20:49:33.534Z,101969.60
2023-03-27T20:52:06.033Z,101972.40
2023-03-27T20:54:35.459Z,101975.20
2023-03-27T20:57:02.239Z,101983.60
2023-03-27T20:59:31.415Z,101983.40
2023-03-27T21:01:59.340Z,101986.40
2023-03-27T21:04:28.568Z,101995.00
2023-03-27T21:06:55.378Z,102002.00
2023-03-27T21:09:26.990Z,102001.40
2023-03-27T21:11:56.295Z,102010.20
2023-03-27T21:14:23.482Z,102010.60
2023-03-27T21:16:51.097Z,102018.40
2023-03-27T21:19:18.283Z,102020.60
2023-03-27T21:21:45.520Z,102028.80
2023-03-27T21:24:12.823Z,102024.40
2023-03-27T21:26:41.018Z,102029.40
2023-03-27T21:29:10.103Z,102024.40
2023-03-27T21:31:41.591Z,102036.00
2023-03-27T21:34:09.058Z,102035.40
2023-03-27T21:36:39.548Z,102040.80
2023-03-27T21:39:06.077Z,102038.00
2023-03-27T21:41:32.992Z,102037.60
2023-03-27T21:44:02.822Z,102047.20
2023-03-27T21:46:32.420Z,102051.00
2023-03-27T21:48:59.189Z,102049.40
2023-03-27T21:51:26.333Z,102052.00
2023-03-27T21:53:56.352Z,102059.40
2023-03-27T21:56:22.778Z,102055.20
2023-03-27T21:58:49.788Z,102069.60
2023-03-27T22:01:20.442Z,102066.00
2023-03-27T22:03:47.351Z,102072.80
2023-03-27T22:06:17.010Z,102080.00
2023-03-27T22:08:43.963Z,102079.20
2023-03-27T22:11:12.073Z,102081.40
2023-03-27T22:13:42.565Z,102086.40
2023-03-27T22:16:18.606Z,102087.60
2023-03-27T22:18:47.713Z,102091.60
2023-03-27T22:21:22.220Z,102090.60
2023-03-27T22:23:50.930Z,102086.60
2023-03-27T22:26:22.407Z,102091.20
2023-03-27T22:28:51.802Z,102094.20
2023-03-27T22:31:19.809Z,102098.00
2023-03-27T22:33:49.627Z,102096.60
2023-03-27T22:36:18.440Z,102096.20
2023-03-27T22:38:45.894Z,102098.60
2023-03-27T22:41:15.404Z,102097.00
2023-03-27T22:43:42.249Z,102098.40
2023-03-27T22:46:15.773Z,102089.60
2023-03-27T22:48:42.866Z,102100.40
2023-03-27T22:51:11.983Z,102100.60
2023-03-27T22:53:40.353Z,102103.80
2023-03-27T22:56:07.963Z,102104.60
2023-03-27T22:58:34.580Z,102101.20
2023-03-27T23:01:04.708Z,102105.20
2023-03-27T23:03:33.031Z,102108.00
2023-03-27T23:06:00.041Z,102108.40
2023-03-27T23:08:28.262Z,102113.20
2023-03-27T23:10:59.656Z,102117.40
2023-03-27T23:13:30.057Z,102118.80
2023-03-27T23:15:58.180Z,102127.80
2023-03-27T23:18:28.183Z,102131.60
2023-03-27T23:20:58.999Z,102134.00
2023-03-27T23:23:30.034Z,102132.20
2023-03-27T23:25:59.320Z,102134.80
2023-03-27T23:28:31.938Z,102131.00
2023-03-27T23:31:29.450Z,102134.20
2023-03-27T23:33:59.153Z,102136.40
2023-03-27T23:36:25.747Z,102135.00
2023-03-27T23:38:53.097Z,102135.20
2023-03-27T23:41:20.720Z,102133.60
2023-03-27T23:43:49.479Z,102128.80
2023-03-27T23:46:17.948Z,102132.20
2023-03-27T23:48:45.326Z,102132.40
2023-03-27T23:51:15.637Z,102134.40
2023-03-27T23:53:43.904Z,102132.60
2023-03-27T23:56:10.790Z,102130.80
2023-03-27T23:58:38.321Z,102135.20
